createdAt,value
2023-04-25T00:00:24.906Z,6.67
2023-04-25T00:02:58.373Z,6.37
2023-04-25T00:05:31.837Z,7.08
2023-04-25T00:08:06.353Z,6.10
2023-04-25T00:10:39.953Z,6.50
2023-04-25T00:13:12.914Z,6.42
2023-04-25T00:15:47.748Z,6.55
2023-04-25T00:18:21.294Z,6.22
2023-04-25T00:20:54.398Z,6.33
2023-04-25T00:23:27.511Z,6.08
2023-04-25T00:26:00.657Z,6.60
2023-04-25T00:28:33.700Z,17.55
2023-04-25T00:31:07.128Z,7.47
2023-04-25T00:33:40.220Z,6.43
2023-04-25T00:36:13.243Z,5.90
2023-04-25T00:38:48.056Z,6.53
2023-04-25T00:41:21.314Z,6.75
2023-04-25T00:43:54.727Z,7.20
2023-04-25T00:46:27.854Z,6.62
2023-04-25T00:49:01.455Z,7.47
2023-04-25T00:51:36.127Z,8.55
2023-04-25T00:54:09.353Z,7.05
2023-04-25T00:56:42.879Z,7.05
2023-04-25T00:59:17.365Z,6.97
2023-04-25T01:01:50.741Z,7.45
2023-04-25T01:04:23.805Z,7.50
2023-04-25T01:06:58.972Z,8.03
2023-04-25T01:09:33.612Z,9.00
2023-04-25T01:12:07.630Z,8.18
2023-04-25T01:14:41.129Z,9.30
2023-04-25T01:19:48.870Z,10.70
2023-04-25T01:22:23.457Z,10.60
2023-04-25T01:24:58.493Z,10.25
2023-04-25T01:27:31.910Z,12.13
2023-04-25T01:30:06.066Z,10.25
2023-04-25T01:32:42.664Z,10.45
2023-04-25T01:35:16.286Z,9.85
2023-04-25T01:37:50.529Z,9.90
2023-04-25T01:40:24.882Z,10.03
2023-04-25T01:42:58.502Z,9.05
2023-04-25T01:45:31.594Z,7.87
2023-04-25T01:48:04.989Z,8.38
2023-04-25T01:50:39.911Z,8.83
2023-04-25T01:53:13.482Z,8.35
2023-04-25T01:58:22.679Z,8.38
2023-04-25T02:01:00.629Z,9.68
2023-04-25T02:03:36.696Z,8.93
2023-04-25T02:06:12.449Z,8.43
2023-04-25T02:08:47.231Z,7.87
2023-04-25T02:11:20.342Z,9.63
2023-04-25T02:14:01.151Z,9.05
2023-04-25T02:16:41.926Z,10.13
2023-04-25T02:19:15.096Z,9.77
2023-04-25T02:21:49.671Z,11.30
2023-04-25T02:24:22.725Z,11.93
2023-04-25T02:26:57.119Z,11.83
2023-04-25T02:32:01.856Z,15.23
2023-04-25T02:34:34.963Z,15.63
2023-04-25T02:37:07.913Z,15.95
2023-04-25T02:39:40.974Z,13.55
2023-04-25T02:42:13.995Z,14.78
2023-04-25T02:44:47.325Z,15.60
2023-04-25T02:47:20.369Z,15.90
2023-04-25T02:49:57.101Z,15.90
2023-04-25T02:52:30.090Z,16.42
2023-04-25T02:55:09.054Z,16.37
2023-04-25T02:57:42.295Z,16.67
2023-04-25T03:00:17.672Z,17.55
2023-04-25T03:02:51.034Z,17.40
2023-04-25T03:05:24.151Z,18.35
2023-04-25T03:07:57.546Z,18.42
2023-04-25T03:10:31.018Z,17.03
2023-04-25T03:13:05.785Z,17.55
2023-04-25T03:15:40.920Z,16.62
2023-04-25T03:18:13.761Z,17.87
2023-04-25T03:20:47.928Z,18.87
2023-04-25T03:25:53.131Z,20.85
2023-04-25T03:28:26.661Z,18.27
2023-04-25T03:31:00.567Z,18.48
2023-04-25T03:33:33.558Z,17.67
2023-04-25T03:36:07.970Z,17.55
2023-04-25T03:41:13.933Z,18.65
2023-04-25T03:44:00.621Z,17.98
2023-04-25T03:46:34.304Z,19.10
2023-04-25T03:49:07.945Z,18.02
2023-04-25T03:51:57.760Z,18.12
2023-04-25T03:54:31.043Z,18.70
2023-04-25T03:57:06.022Z,18.05
2023-04-25T03:59:41.001Z,18.00
2023-04-25T04:02:16.030Z,19.02
2023-04-25T04:04:49.543Z,18.10
2023-04-25T04:07:22.698Z,17.95
2023-04-25T04:09:57.441Z,18.75
2023-04-25T04:12:32.065Z,20.23
2023-04-25T04:15:09.939Z,24.37
2023-04-25T04:17:43.234Z,24.95
2023-04-25T04:20:16.642Z,25.20
2023-04-25T04:22:50.411Z,27.40
2023-04-25T04:25:25.852Z,27.15
2023-04-25T04:28:15.565Z,30.62
2023-04-25T04:30:52.006Z,32.35
2023-04-25T04:33:26.577Z,32.17
2023-04-25T04:36:04.996Z,33.80
2023-04-25T04:38:40.126Z,33.80
2023-04-25T04:41:14.434Z,34.30
2023-04-25T04:43:51.145Z,37.55
2023-04-25T04:46:29.926Z,35.70
2023-04-25T04:49:19.901Z,37.33
2023-04-25T04:51:57.369Z,35.83
2023-04-25T04:54:37.962Z,36.73
2023-04-25T04:57:21.505Z,40.43
2023-04-25T05:00:02.959Z,40.45
2023-04-25T05:02:40.215Z,42.40
2023-04-25T05:05:21.259Z,45.05
2023-04-25T05:07:56.076Z,43.13
2023-04-25T05:10:30.836Z,42.85
2023-04-25T05:13:20.452Z,42.78
2023-04-25T05:16:07.791Z,46.58
2023-04-25T05:18:43.844Z,43.98
2023-04-25T05:21:36.590Z,42.85
2023-04-25T05:24:17.279Z,42.83
2023-04-25T05:27:08.621Z,39.98
2023-04-25T05:29:58.224Z,39.55
2023-04-25T05:32:36.970Z,37.63
2023-04-25T05:37:45.335Z,35.00
2023-04-25T05:40:19.995Z,37.23
2023-04-25T05:42:54.665Z,36.03
2023-04-25T05:45:29.457Z,34.30
2023-04-25T05:48:16.344Z,39.18
2023-04-25T05:50:52.730Z,35.78
2023-04-25T05:53:27.313Z,32.23
2023-04-25T05:56:02.065Z,34.85
2023-04-25T05:58:35.901Z,33.13
2023-04-25T06:01:10.275Z,33.13
2023-04-25T06:06:17.468Z,30.72
2023-04-25T06:08:50.761Z,32.80
2023-04-25T06:11:23.899Z,32.00
2023-04-25T06:13:59.130Z,31.48
2023-04-25T06:16:32.229Z,32.33
2023-04-25T06:19:05.817Z,34.10
2023-04-25T06:21:40.916Z,31.40
2023-04-25T06:24:14.622Z,33.25
2023-04-25T06:26:48.916Z,29.23
2023-04-25T06:29:22.419Z,33.35
2023-04-25T06:31:55.380Z,33.48
2023-04-25T06:34:29.206Z,32.00
2023-04-25T06:37:02.514Z,41.67
2023-04-25T06:39:36.696Z,29.00
2023-04-25T06:42:11.311Z,24.90
2023-04-25T06:44:48.782Z,24.05
2023-04-25T06:47:23.552Z,24.82
2023-04-25T06:49:56.865Z,23.15
2023-04-25T06:52:31.258Z,26.33
2023-04-25T06:57:38.591Z,26.77
2023-04-25T07:00:14.693Z,25.65
2023-04-25T07:02:48.260Z,23.45
2023-04-25T07:05:21.738Z,22.67
2023-04-25T07:07:54.945Z,20.48
2023-04-25T07:10:28.046Z,18.57
2023-04-25T07:13:01.979Z,23.92
2023-04-25T07:15:36.152Z,20.77
2023-04-25T07:18:09.299Z,17.65
2023-04-25T07:20:42.684Z,13.93
2023-04-25T07:23:15.829Z,18.37
2023-04-25T07:25:49.119Z,17.48
2023-04-25T07:28:23.893Z,17.60
2023-04-25T07:30:57.243Z,15.08
2023-04-25T07:33:31.374Z,14.63
2023-04-25T07:36:04.377Z,12.20
2023-04-25T07:38:37.884Z,14.30
2023-04-25T07:43:44.061Z,13.83
2023-04-25T07:46:17.711Z,12.43
2023-04-25T07:48:51.083Z,11.15
2023-04-25T07:51:24.484Z,9.18
2023-04-25T07:53:58.240Z,7.35
2023-04-25T07:56:41.497Z,7.40
2023-04-25T07:59:06.554Z,8.40
2023-04-25T08:01:40.002Z,6.22
2023-04-25T08:04:13.731Z,5.93
2023-04-25T08:06:55.249Z,6.35
2023-04-25T08:09:34.308Z,5.67
2023-04-25T08:12:08.540Z,5.12
2023-04-25T08:14:41.941Z,6.33
2023-04-25T08:17:15.653Z,4.33
2023-04-25T08:19:48.603Z,4.50
2023-04-25T08:22:31.160Z,3.33
2023-04-25T08:25:06.702Z,2.02
2023-04-25T08:27:39.704Z,2.65
2023-04-25T08:30:13.528Z,4.95
2023-04-25T08:32:47.298Z,2.42
2023-04-25T08:35:22.681Z,2.20
2023-04-25T08:37:56.322Z,2.35
2023-04-25T08:40:31.413Z,2.25
2023-04-25T08:43:12.920Z,2.08
2023-04-25T08:45:47.443Z,2.25
2023-04-25T08:48:22.278Z,3.05
2023-04-25T08:50:57.481Z,2.90
2023-04-25T08:53:34.138Z,4.65
2023-04-25T08:56:10.510Z,4.20
2023-04-25T08:58:43.880Z,3.52
2023-04-25T09:01:19.803Z,3.52
2023-04-25T09:03:54.918Z,3.92
2023-04-25T09:06:29.097Z,3.25
2023-04-25T09:11:42.916Z,3.70
2023-04-25T09:14:24.214Z,3.52
2023-04-25T09:17:09.152Z,3.70
2023-04-25T09:19:51.437Z,3.27
2023-04-25T09:22:26.138Z,3.83
2023-04-25T09:24:59.798Z,2.72
2023-04-25T09:27:34.083Z,3.27
2023-04-25T09:30:17.036Z,3.30
2023-04-25T09:33:00.093Z,3.52
2023-04-25T09:35:35.557Z,3.42
2023-04-25T09:38:18.631Z,3.17
2023-04-25T09:41:00.098Z,3.52
2023-04-25T09:43:34.850Z,3.80
2023-04-25T09:46:15.028Z,3.92
2023-04-25T09:48:55.067Z,4.00
2023-04-25T09:51:30.058Z,6.55
2023-04-25T09:56:39.226Z,3.25
2023-04-25T09:59:15.046Z,2.37
2023-04-25T10:01:48.288Z,2.60
2023-04-25T10:04:32.183Z,2.20
2023-04-25T10:07:10.914Z,1.80
2023-04-25T10:09:44.038Z,1.47
2023-04-25T10:12:17.226Z,1.90
2023-04-25T10:14:50.481Z,1.65
2023-04-25T10:17:23.847Z,1.82
2023-04-25T10:19:57.870Z,2.08
2023-04-25T10:25:09.565Z,2.60
2023-04-25T10:27:43.268Z,2.58
2023-04-25T10:30:19.636Z,2.42
2023-04-25T10:32:52.967Z,3.08
2023-04-25T10:35:32.701Z,2.53
2023-04-25T10:38:13.943Z,2.80
2023-04-25T10:41:10.560Z,5.53
2023-04-25T10:43:48.224Z,2.98
2023-04-25T10:46:27.202Z,2.52
2023-04-25T10:49:03.105Z,2.80
2023-04-25T10:51:54.539Z,2.50
2023-04-25T10:54:13.216Z,2.12
2023-04-25T10:56:46.327Z,2.30
2023-04-25T10:59:20.977Z,2.47
2023-04-25T11:01:58.830Z,2.47
2023-04-25T11:04:36.217Z,2.20
2023-04-25T11:07:39.591Z,2.22
2023-04-25T11:10:12.794Z,1.77
2023-04-25T11:12:47.963Z,2.45
2023-04-25T11:15:21.233Z,2.00
2023-04-25T11:17:58.019Z,2.10
2023-04-25T11:20:31.118Z,2.33
2023-04-25T11:25:38.784Z,2.10
2023-04-25T11:28:12.479Z,2.35
2023-04-25T11:30:51.321Z,2.27
2023-04-25T11:33:29.815Z,2.20
2023-04-25T11:36:03.229Z,2.80
2023-04-25T11:38:36.695Z,1.62
2023-04-25T11:41:09.887Z,2.30
2023-04-25T11:43:43.474Z,3.37
2023-04-25T11:46:16.791Z,2.40
2023-04-25T11:48:51.913Z,3.60
2023-04-25T11:51:25.371Z,2.52
2023-04-25T11:53:58.553Z,2.73
2023-04-25T11:56:32.444Z,2.87
2023-04-25T11:59:07.994Z,2.40
2023-04-25T12:01:45.966Z,2.27
2023-04-25T12:04:27.423Z,2.80
2023-04-25T12:07:02.996Z,2.87
2023-04-25T12:09:37.139Z,2.40
2023-04-25T12:12:12.749Z,1.52
2023-04-25T12:14:52.502Z,2.22
2023-04-25T12:17:26.257Z,2.25
2023-04-25T12:19:59.381Z,2.60
2023-04-25T12:22:33.238Z,2.77
2023-04-25T12:25:08.817Z,2.63
2023-04-25T12:27:45.607Z,2.72
2023-04-25T12:30:18.868Z,2.58
2023-04-25T12:32:52.293Z,2.42
2023-04-25T12:35:25.172Z,4.25
2023-04-25T12:37:58.238Z,2.58
2023-04-25T12:40:31.327Z,2.40
2023-04-25T12:43:04.544Z,2.40
2023-04-25T12:45:37.667Z,2.40
2023-04-25T12:48:11.456Z,2.37
2023-04-25T12:50:44.969Z,3.05
2023-04-25T12:53:20.786Z,2.27
2023-04-25T12:58:28.581Z,2.62
2023-04-25T13:01:01.639Z,2.55
2023-04-25T13:03:36.358Z,2.87
2023-04-25T13:08:43.160Z,2.45
2023-04-25T13:11:19.070Z,2.20
2023-04-25T13:13:52.307Z,2.60
2023-04-25T13:16:26.247Z,2.00
2023-04-25T13:19:00.324Z,2.27
2023-04-25T13:21:34.056Z,1.92
2023-04-25T13:24:07.238Z,2.03
2023-04-25T13:26:40.853Z,2.35
2023-04-25T13:29:15.196Z,2.47
2023-04-25T13:31:48.245Z,2.47
2023-04-25T13:34:22.109Z,2.92
2023-04-25T13:36:55.924Z,2.08
2023-04-25T13:39:29.154Z,1.95
2023-04-25T13:42:03.196Z,2.57
2023-04-25T13:44:36.157Z,2.20
2023-04-25T13:47:09.264Z,2.80
2023-04-25T13:49:42.427Z,2.00
2023-04-25T13:52:15.261Z,2.40
2023-04-25T13:54:48.351Z,2.08
2023-04-25T13:57:21.649Z,3.33
2023-04-25T13:59:55.090Z,2.33
2023-04-25T14:02:28.656Z,2.27
2023-04-25T14:05:02.020Z,2.70
2023-04-25T14:07:36.524Z,1.98
2023-04-25T14:10:10.183Z,2.12
2023-04-25T14:12:43.235Z,1.52
2023-04-25T14:15:16.448Z,1.60
2023-04-25T14:17:49.697Z,1.77
2023-04-25T14:20:24.334Z,1.67
2023-04-25T14:22:58.861Z,1.60
2023-04-25T14:25:33.175Z,2.62
2023-04-25T14:30:38.097Z,2.60
2023-04-25T14:33:10.906Z,2.60
2023-04-25T14:35:43.914Z,2.30
2023-04-25T14:38:17.155Z,1.82
2023-04-25T14:40:50.353Z,1.92
2023-04-25T14:43:24.187Z,1.37
2023-04-25T14:45:58.580Z,1.72
2023-04-25T14:48:32.475Z,1.40
2023-04-25T14:51:05.594Z,2.22
2023-04-25T14:53:38.699Z,1.80
2023-04-25T14:56:11.871Z,2.12
2023-04-25T14:58:45.186Z,2.10
2023-04-25T15:01:18.311Z,2.22
2023-04-25T15:03:52.706Z,1.90
2023-04-25T15:06:27.586Z,2.10
2023-04-25T15:09:01.601Z,2.02
2023-04-25T15:11:34.749Z,1.70
2023-04-25T15:14:07.700Z,2.27
2023-04-25T15:16:40.762Z,2.20
2023-04-25T15:19:13.734Z,2.17
2023-04-25T15:21:47.047Z,2.40
2023-04-25T15:24:20.272Z,2.35
2023-04-25T15:26:53.608Z,2.67
2023-04-25T15:29:27.517Z,2.23
2023-04-25T15:32:01.079Z,2.42
2023-04-25T15:34:35.275Z,4.15
2023-04-25T15:37:08.887Z,3.35
2023-04-25T15:39:41.716Z,2.58
2023-04-25T15:42:14.589Z,2.60
2023-04-25T15:44:47.570Z,2.83
2023-04-25T15:47:21.116Z,3.12
2023-04-25T15:49:53.909Z,2.60
2023-04-25T15:52:27.917Z,2.60
2023-04-25T15:55:01.737Z,2.98
2023-04-25T15:57:37.082Z,3.08
2023-04-25T16:00:12.401Z,3.08
2023-04-25T16:02:46.130Z,2.70
2023-04-25T16:05:19.922Z,2.83
2023-04-25T16:07:54.156Z,2.50
2023-04-25T16:12:59.707Z,2.70
2023-04-25T16:15:35.084Z,2.87
2023-04-25T16:18:08.706Z,2.80
2023-04-25T16:20:42.459Z,2.85
2023-04-25T16:23:15.814Z,2.45
2023-04-25T16:25:48.728Z,2.92
2023-04-25T16:28:21.750Z,3.02
2023-04-25T16:30:54.696Z,2.62
2023-04-25T16:33:28.085Z,2.98
2023-04-25T16:36:00.873Z,2.80
2023-04-25T16:38:33.949Z,2.47
2023-04-25T16:41:07.708Z,2.47
2023-04-25T16:43:43.534Z,2.55
2023-04-25T16:46:18.111Z,2.45
2023-04-25T16:48:51.435Z,2.90
2023-04-25T16:51:24.660Z,2.77
2023-04-25T16:53:57.930Z,3.07
2023-04-25T16:56:31.182Z,2.45
2023-04-25T16:59:04.276Z,2.15
2023-04-25T17:01:37.926Z,2.08
2023-04-25T17:04:11.357Z,2.30
2023-04-25T17:06:45.058Z,2.30
2023-04-25T17:09:19.142Z,2.80
2023-04-25T17:11:52.170Z,2.75
2023-04-25T17:14:25.600Z,3.22
2023-04-25T17:16:58.755Z,3.05
2023-04-25T17:19:32.501Z,1.98
2023-04-25T17:22:05.384Z,2.10
2023-04-25T17:24:40.148Z,2.30
2023-04-25T17:27:13.376Z,2.77
2023-04-25T17:29:46.766Z,3.20
2023-04-25T17:32:19.908Z,2.20
2023-04-25T17:34:53.040Z,2.42
2023-04-25T17:37:28.151Z,2.45
2023-04-25T17:40:01.208Z,2.60
2023-04-25T17:42:34.779Z,2.98
2023-04-25T17:45:09.752Z,3.08
2023-04-25T17:47:42.801Z,2.70
2023-04-25T17:50:17.180Z,3.25
2023-04-25T17:52:50.236Z,2.77
2023-04-25T17:55:24.099Z,3.17
2023-04-25T17:57:58.158Z,3.22
2023-04-25T18:00:32.791Z,3.35
2023-04-25T18:03:05.763Z,3.37
2023-04-25T18:05:39.131Z,3.53
2023-04-25T18:08:12.166Z,4.03
2023-04-25T18:10:45.138Z,3.92
2023-04-25T18:13:18.536Z,4.03
2023-04-25T18:15:52.185Z,4.72
2023-04-25T18:18:27.253Z,5.10
2023-04-25T18:21:01.539Z,4.55
2023-04-25T18:26:10.045Z,4.60
2023-04-25T18:28:43.423Z,5.27
2023-04-25T18:31:17.738Z,5.03
2023-04-25T18:33:51.053Z,5.85
2023-04-25T18:36:24.568Z,6.25
2023-04-25T18:39:08.662Z,5.60
2023-04-25T18:41:53.739Z,5.70
2023-04-25T18:44:13.251Z,6.12
2023-04-25T18:46:47.494Z,6.20
2023-04-25T18:51:52.376Z,5.20
2023-04-25T18:54:25.718Z,6.65
2023-04-25T18:57:00.522Z,6.43
2023-04-25T18:59:34.671Z,6.08
2023-04-25T19:02:08.337Z,5.47
2023-04-25T19:04:41.579Z,5.78
2023-04-25T19:07:15.336Z,5.07
2023-04-25T19:09:48.241Z,5.65
2023-04-25T19:12:22.334Z,4.80
2023-04-25T19:14:55.671Z,4.80
2023-04-25T19:17:30.534Z,5.85
2023-04-25T19:20:04.524Z,6.37
2023-04-25T19:22:37.758Z,5.83
2023-04-25T19:25:11.786Z,5.53
2023-04-25T19:27:45.308Z,5.10
2023-04-25T19:30:18.158Z,4.83
2023-04-25T19:32:51.707Z,5.27
2023-04-25T19:35:24.684Z,5.80
2023-04-25T19:37:57.932Z,5.83
2023-04-25T19:40:31.309Z,5.35
2023-04-25T19:43:04.883Z,5.08
2023-04-25T19:45:38.009Z,4.37
2023-04-25T19:48:12.054Z,4.17
2023-04-25T19:50:45.096Z,4.53
2023-04-25T19:53:17.878Z,4.92
2023-04-25T19:55:51.256Z,5.55
2023-04-25T19:58:24.699Z,5.45
2023-04-25T20:01:01.134Z,4.50
2023-04-25T20:03:35.143Z,4.90
2023-04-25T20:06:08.341Z,4.50
2023-04-25T20:08:42.190Z,5.00
2023-04-25T20:11:15.937Z,5.08
2023-04-25T20:13:49.107Z,4.60
2023-04-25T20:16:22.507Z,4.03
2023-04-25T20:18:55.784Z,4.35
2023-04-25T20:21:29.971Z,4.12
2023-04-25T20:24:03.561Z,4.30
2023-04-25T20:26:38.494Z,5.03
2023-04-25T20:29:11.534Z,4.62
2023-04-25T20:31:44.799Z,4.65
2023-04-25T20:34:20.104Z,4.67
2023-04-25T20:36:53.415Z,4.05
2023-04-25T20:39:27.274Z,3.98
2023-04-25T20:42:00.029Z,4.60
2023-04-25T20:44:33.201Z,4.00
2023-04-25T20:47:08.827Z,4.00
2023-04-25T20:49:41.189Z,4.53
2023-04-25T20:52:14.303Z,3.52
2023-04-25T20:54:52.286Z,3.65
2023-04-25T20:57:25.281Z,4.10
2023-04-25T21:00:00.043Z,4.22
2023-04-25T21:02:33.144Z,4.80
2023-04-25T21:05:07.137Z,4.30
2023-04-25T21:07:41.197Z,3.87
2023-04-25T21:10:15.886Z,3.60
2023-04-25T21:12:49.733Z,4.28
2023-04-25T21:15:24.911Z,4.10
2023-04-25T21:17:57.807Z,4.30
2023-04-25T21:20:31.066Z,4.42
2023-04-25T21:23:05.817Z,4.57
2023-04-25T21:25:39.253Z,4.28
2023-04-25T21:28:12.659Z,4.15
2023-04-25T21:30:46.955Z,4.00
2023-04-25T21:33:19.948Z,3.80
2023-04-25T21:35:53.642Z,3.85
2023-04-25T21:38:26.914Z,4.00
2023-04-25T21:41:00.436Z,3.98
2023-04-25T21:43:33.708Z,4.83
2023-04-25T21:46:22.499Z,4.80
2023-04-25T21:48:42.016Z,4.20
2023-04-25T21:51:15.207Z,3.52
2023-04-25T21:53:48.101Z,4.20
2023-04-25T21:56:21.477Z,4.12
2023-04-25T21:58:54.416Z,4.35
2023-04-25T22:01:28.812Z,4.80
2023-04-25T22:04:01.777Z,4.40
2023-04-25T22:06:34.893Z,4.30
2023-04-25T22:09:07.958Z,3.80
2023-04-25T22:11:41.390Z,3.85
2023-04-25T22:14:15.158Z,3.67
2023-04-25T22:16:50.119Z,4.30
2023-04-25T22:19:23.083Z,3.98
2023-04-25T22:21:56.295Z,4.70
2023-04-25T22:24:30.216Z,4.45
2023-04-25T22:27:03.289Z,4.15
2023-04-25T22:29:37.231Z,4.10
2023-04-25T22:32:10.284Z,4.60
2023-04-25T22:34:43.454Z,4.33
2023-04-25T22:37:17.136Z,4.12
2023-04-25T22:39:50.086Z,4.30
2023-04-25T22:42:23.263Z,5.40
2023-04-25T22:44:56.182Z,4.95
2023-04-25T22:47:29.786Z,4.70
2023-04-25T22:50:04.182Z,3.77
2023-04-25T22:52:37.548Z,4.85
2023-04-25T22:55:12.619Z,4.40
2023-04-25T22:57:45.705Z,4.67
2023-04-25T23:00:22.523Z,4.70
2023-04-25T23:02:55.835Z,4.80
2023-04-25T23:05:29.071Z,4.90
2023-04-25T23:08:02.303Z,4.00
2023-04-25T23:10:37.257Z,4.20
2023-04-25T23:13:10.619Z,3.55
2023-04-25T23:15:43.616Z,4.53
2023-04-25T23:18:16.940Z,4.30
2023-04-25T23:20:50.312Z,4.83
2023-04-25T23:23:23.721Z,4.90
2023-04-25T23:25:58.188Z,5.35
2023-04-25T23:28:31.642Z,4.25
2023-04-25T23:31:12.301Z,4.10
2023-04-25T23:33:45.264Z,3.55
2023-04-25T23:36:21.632Z,4.85
2023-04-25T23:38:56.263Z,4.40
2023-04-25T23:41:29.147Z,4.87
2023-04-25T23:44:03.681Z,4.35
2023-04-25T23:46:36.913Z,4.12
2023-04-25T23:49:10.186Z,4.47
2023-04-25T23:51:43.552Z,3.70
2023-04-25T23:54:16.819Z,3.50
2023-04-25T23:56:49.731Z,4.40
2023-04-25T23:59:22.782Z,4.72
